EKA9214 PAAQ-PAEI
Flight info
| Callsign | EKA9214 |
|---|---|
| Flight time | 1h 4m |
| Altitude | 12000 |
| Route | TKA T399 ZEKLI T381 CEKED GLOWS |
| Aircraft | DC3S/M-SDF/S |
Departure
| Time | 2026-05-07 13:42 |
|---|---|
| Airport | Warren "Bud" Woods Palmer Municipal Airport (PAAQ) |
Arrival
| Time | 2026-05-07 14:46 |
|---|---|
| Airport | Eielson Air Force Base (PAEI) |
| Time | Latitude | Longitude | Altitude | Speed | Heading |
|---|---|---|---|---|---|
| 2026-05-07 13:39 | 61.60411 | -149.09601 | 251 ft | 0 kts | 0° |
| 2026-05-07 13:39 | 61.60413 | -149.09601 | 251 ft | 4 kts | 12° |
| 2026-05-07 13:40 | 61.60421 | -149.09556 | 251 ft | 13 kts | 96° |
| 2026-05-07 13:40 | 61.60392 | -149.09225 | 251 ft | 27 kts | 101° |
| 2026-05-07 13:40 | 61.60380 | -149.08906 | 251 ft | 17 kts | 87° |
| 2026-05-07 13:40 | 61.60364 | -149.08795 | 251 ft | 5 kts | 137° |
| 2026-05-07 13:41 | 61.60248 | -149.08750 | 251 ft | 46 kts | 179° |
| 2026-05-07 13:41 | 61.59716 | -149.08749 | 273 ft | 101 kts | 180° |
| 2026-05-07 13:41 | 61.58890 | -149.08718 | 484 ft | 129 kts | 178° |
| 2026-05-07 13:41 | 61.58032 | -149.09317 | 732 ft | 135 kts | 218° |
| 2026-05-07 13:42 | 61.57644 | -149.10997 | 1021 ft | 131 kts | 266° |
| 2026-05-07 13:42 | 61.57962 | -149.12718 | 1315 ft | 129 kts | 313° |
| 2026-05-07 13:42 | 61.58762 | -149.13533 | 1646 ft | 129 kts | 343° |
| 2026-05-07 13:42 | 61.59657 | -149.13994 | 1939 ft | 134 kts | 347° |
| 2026-05-07 13:43 | 61.60586 | -149.14434 | 2223 ft | 139 kts | 348° |
| 2026-05-07 13:43 | 61.61547 | -149.14889 | 2506 ft | 143 kts | 348° |
| 2026-05-07 13:43 | 61.62531 | -149.15363 | 2788 ft | 147 kts | 347° |
| 2026-05-07 13:43 | 61.63515 | -149.15910 | 3064 ft | 150 kts | 344° |
| 2026-05-07 13:44 | 61.64495 | -149.16696 | 3340 ft | 151 kts | 338° |
| 2026-05-07 13:44 | 61.65445 | -149.17681 | 3621 ft | 153 kts | 333° |
| 2026-05-07 13:44 | 61.66373 | -149.18792 | 3901 ft | 154 kts | 330° |
| 2026-05-07 13:44 | 61.67289 | -149.19977 | 4185 ft | 155 kts | 329° |
| 2026-05-07 13:45 | 61.68198 | -149.21204 | 4462 ft | 155 kts | 328° |
| 2026-05-07 13:45 | 61.69104 | -149.22455 | 4744 ft | 156 kts | 328° |
| 2026-05-07 13:45 | 61.70010 | -149.23721 | 5017 ft | 156 kts | 327° |
| 2026-05-07 13:45 | 61.70911 | -149.24989 | 5294 ft | 156 kts | 327° |
| 2026-05-07 13:46 | 61.71810 | -149.26259 | 5571 ft | 156 kts | 327° |
| 2026-05-07 13:46 | 61.72699 | -149.27516 | 5840 ft | 156 kts | 327° |
| 2026-05-07 13:46 | 61.73601 | -149.28795 | 6115 ft | 157 kts | 327° |
| 2026-05-07 13:46 | 61.74512 | -149.30086 | 6391 ft | 158 kts | 327° |
| 2026-05-07 13:47 | 61.75426 | -149.31384 | 6666 ft | 159 kts | 327° |
| 2026-05-07 13:47 | 61.76344 | -149.32692 | 6940 ft | 159 kts | 327° |
| 2026-05-07 13:47 | 61.77266 | -149.34005 | 7216 ft | 160 kts | 327° |
| 2026-05-07 13:47 | 61.78184 | -149.35314 | 7493 ft | 159 kts | 327° |
| 2026-05-07 13:48 | 61.79101 | -149.36624 | 7766 ft | 159 kts | 327° |
| 2026-05-07 13:48 | 61.80017 | -149.37931 | 8041 ft | 158 kts | 327° |
| 2026-05-07 13:48 | 61.80926 | -149.39230 | 8315 ft | 157 kts | 327° |
| 2026-05-07 13:48 | 61.81907 | -149.40194 | 8558 ft | 157 kts | 349° |
| 2026-05-07 13:49 | 61.82934 | -149.39684 | 8837 ft | 155 kts | 26° |
| 2026-05-07 13:49 | 61.83801 | -149.38347 | 9140 ft | 155 kts | 36° |
| 2026-05-07 13:49 | 61.84634 | -149.36876 | 9412 ft | 157 kts | 38° |
| 2026-05-07 13:49 | 61.85472 | -149.35370 | 9686 ft | 158 kts | 38° |
| 2026-05-07 13:50 | 61.86310 | -149.33860 | 9959 ft | 159 kts | 38° |
| 2026-05-07 13:50 | 61.87158 | -149.32336 | 10233 ft | 160 kts | 39° |
| 2026-05-07 13:50 | 61.88008 | -149.30812 | 10506 ft | 160 kts | 39° |
| 2026-05-07 13:50 | 61.88861 | -149.29283 | 10777 ft | 161 kts | 39° |
| 2026-05-07 13:51 | 61.89714 | -149.27758 | 11052 ft | 163 kts | 39° |
| 2026-05-07 13:51 | 61.90590 | -149.26194 | 11327 ft | 166 kts | 39° |
| 2026-05-07 13:51 | 61.91476 | -149.24615 | 11599 ft | 167 kts | 39° |
| 2026-05-07 13:51 | 61.92378 | -149.23014 | 11834 ft | 172 kts | 39° |
| 2026-05-07 13:52 | 61.93319 | -149.21347 | 11959 ft | 181 kts | 39° |
| 2026-05-07 13:52 | 61.94320 | -149.19574 | 12006 ft | 194 kts | 39° |
| 2026-05-07 13:52 | 61.95391 | -149.17685 | 12010 ft | 205 kts | 39° |
| 2026-05-07 13:52 | 61.96512 | -149.15711 | 12006 ft | 213 kts | 39° |
| 2026-05-07 13:53 | 61.97665 | -149.13682 | 12005 ft | 218 kts | 39° |
| 2026-05-07 13:53 | 61.98843 | -149.11611 | 12006 ft | 221 kts | 39° |
| 2026-05-07 13:53 | 62.00026 | -149.09543 | 12006 ft | 224 kts | 38° |
| 2026-05-07 13:53 | 62.01241 | -149.07435 | 11999 ft | 226 kts | 39° |
| 2026-05-07 13:54 | 62.02462 | -149.05320 | 11993 ft | 227 kts | 39° |
| 2026-05-07 13:54 | 62.03690 | -149.03195 | 11998 ft | 227 kts | 39° |
| 2026-05-07 13:54 | 62.04517 | -149.01766 | 11999 ft | 227 kts | 39° |
| 2026-05-07 13:54 | 62.05733 | -148.99668 | 12000 ft | 227 kts | 39° |
| 2026-05-07 13:55 | 62.06963 | -148.97553 | 12000 ft | 227 kts | 38° |
| 2026-05-07 13:55 | 62.08197 | -148.95437 | 12000 ft | 227 kts | 38° |
| 2026-05-07 13:55 | 62.09430 | -148.93329 | 12000 ft | 228 kts | 38° |
| 2026-05-07 13:55 | 62.10668 | -148.91220 | 12000 ft | 227 kts | 38° |
| 2026-05-07 13:56 | 62.11907 | -148.89118 | 12002 ft | 227 kts | 38° |
| 2026-05-07 13:56 | 62.13144 | -148.87026 | 12004 ft | 227 kts | 38° |
| 2026-05-07 13:56 | 62.14386 | -148.84934 | 12003 ft | 227 kts | 38° |
| 2026-05-07 13:56 | 62.15628 | -148.82847 | 11979 ft | 228 kts | 38° |
| 2026-05-07 13:57 | 62.16881 | -148.80745 | 11935 ft | 229 kts | 38° |
| 2026-05-07 13:57 | 62.18137 | -148.78644 | 11940 ft | 228 kts | 37° |
| 2026-05-07 13:57 | 62.19380 | -148.76569 | 11985 ft | 226 kts | 37° |
| 2026-05-07 13:57 | 62.20609 | -148.74527 | 11994 ft | 226 kts | 37° |
| 2026-05-07 13:58 | 62.21854 | -148.72471 | 11993 ft | 226 kts | 37° |
| 2026-05-07 13:58 | 62.23102 | -148.70413 | 11992 ft | 226 kts | 37° |
| 2026-05-07 13:58 | 62.24351 | -148.68357 | 11997 ft | 226 kts | 37° |
| 2026-05-07 13:58 | 62.25601 | -148.66305 | 11997 ft | 226 kts | 37° |
| 2026-05-07 13:59 | 62.26852 | -148.64262 | 11998 ft | 226 kts | 37° |
| 2026-05-07 13:59 | 62.28106 | -148.62222 | 11997 ft | 226 kts | 36° |
| 2026-05-07 13:59 | 62.29362 | -148.60187 | 11979 ft | 227 kts | 36° |
| 2026-05-07 13:59 | 62.30613 | -148.58169 | 11982 ft | 226 kts | 36° |
| 2026-05-07 14:00 | 62.31879 | -148.56133 | 11994 ft | 225 kts | 36° |
| 2026-05-07 14:00 | 62.33135 | -148.54120 | 11996 ft | 225 kts | 36° |
| 2026-05-07 14:00 | 62.34395 | -148.52108 | 11993 ft | 225 kts | 36° |
| 2026-05-07 14:00 | 62.35656 | -148.50103 | 11990 ft | 225 kts | 36° |
| 2026-05-07 14:01 | 62.36919 | -148.48100 | 11994 ft | 225 kts | 36° |
| 2026-05-07 14:01 | 62.38164 | -148.46135 | 11998 ft | 225 kts | 36° |
| 2026-05-07 14:01 | 62.39447 | -148.44118 | 11998 ft | 225 kts | 35° |
| 2026-05-07 14:01 | 62.40715 | -148.42132 | 11997 ft | 225 kts | 35° |
| 2026-05-07 14:02 | 62.41985 | -148.40151 | 11995 ft | 225 kts | 35° |
| 2026-05-07 14:02 | 62.43246 | -148.38194 | 11994 ft | 226 kts | 35° |
| 2026-05-07 14:02 | 62.44523 | -148.36220 | 11994 ft | 226 kts | 35° |
| 2026-05-07 14:02 | 62.45799 | -148.34255 | 11998 ft | 225 kts | 34° |
| 2026-05-07 14:03 | 62.47082 | -148.32286 | 12002 ft | 226 kts | 34° |
| 2026-05-07 14:03 | 62.48362 | -148.30329 | 12000 ft | 226 kts | 34° |
| 2026-05-07 14:03 | 62.49644 | -148.28377 | 12000 ft | 226 kts | 34° |
| 2026-05-07 14:03 | 62.50930 | -148.26427 | 11999 ft | 226 kts | 34° |
| 2026-05-07 14:04 | 62.52217 | -148.24485 | 11999 ft | 226 kts | 34° |
| 2026-05-07 14:04 | 62.53506 | -148.22547 | 12000 ft | 226 kts | 34° |
| 2026-05-07 14:04 | 62.54797 | -148.20614 | 12000 ft | 225 kts | 34° |
| 2026-05-07 14:04 | 62.56089 | -148.18687 | 12001 ft | 225 kts | 34° |
| 2026-05-07 14:05 | 62.57383 | -148.16765 | 12000 ft | 226 kts | 33° |
| 2026-05-07 14:05 | 62.58683 | -148.14844 | 12001 ft | 225 kts | 33° |
| 2026-05-07 14:05 | 62.59983 | -148.12933 | 12001 ft | 225 kts | 33° |
| 2026-05-07 14:05 | 62.61284 | -148.11029 | 12002 ft | 225 kts | 33° |
| 2026-05-07 14:06 | 62.62589 | -148.09129 | 12004 ft | 225 kts | 33° |
| 2026-05-07 14:06 | 62.63879 | -148.07260 | 12005 ft | 225 kts | 33° |
| 2026-05-07 14:06 | 62.65189 | -148.05372 | 12005 ft | 225 kts | 33° |
| 2026-05-07 14:06 | 62.66500 | -148.03493 | 12008 ft | 225 kts | 32° |
| 2026-05-07 14:07 | 62.67815 | -148.01621 | 12010 ft | 225 kts | 32° |
| 2026-05-07 14:07 | 62.69125 | -147.99765 | 12011 ft | 225 kts | 32° |
| 2026-05-07 14:07 | 62.70445 | -147.97902 | 12013 ft | 225 kts | 32° |
| 2026-05-07 14:07 | 62.71765 | -147.96052 | 12015 ft | 225 kts | 32° |
| 2026-05-07 14:08 | 62.73072 | -147.94230 | 12017 ft | 225 kts | 32° |
| 2026-05-07 14:08 | 62.74394 | -147.92396 | 12019 ft | 225 kts | 32° |
| 2026-05-07 14:08 | 62.75721 | -147.90568 | 12021 ft | 225 kts | 31° |
| 2026-05-07 14:08 | 62.77052 | -147.88743 | 12024 ft | 225 kts | 31° |
| 2026-05-07 14:09 | 62.78382 | -147.86932 | 12026 ft | 225 kts | 31° |
| 2026-05-07 14:09 | 62.79715 | -147.85124 | 12028 ft | 225 kts | 31° |
| 2026-05-07 14:09 | 62.81047 | -147.83331 | 12032 ft | 225 kts | 31° |
| 2026-05-07 14:09 | 62.82387 | -147.81537 | 12035 ft | 225 kts | 31° |
| 2026-05-07 14:10 | 62.83727 | -147.79755 | 12037 ft | 225 kts | 30° |
| 2026-05-07 14:10 | 62.85068 | -147.77982 | 12040 ft | 225 kts | 30° |
| 2026-05-07 14:10 | 62.86396 | -147.76238 | 12042 ft | 225 kts | 30° |
| 2026-05-07 14:10 | 62.87745 | -147.74477 | 12045 ft | 225 kts | 30° |
| 2026-05-07 14:11 | 62.89091 | -147.72731 | 12048 ft | 225 kts | 30° |
| 2026-05-07 14:11 | 62.90445 | -147.70984 | 12050 ft | 226 kts | 30° |
| 2026-05-07 14:11 | 62.91801 | -147.69248 | 12053 ft | 226 kts | 29° |
| 2026-05-07 14:11 | 62.93160 | -147.67518 | 12056 ft | 226 kts | 29° |
| 2026-05-07 14:12 | 62.94527 | -147.65792 | 12058 ft | 226 kts | 29° |
| 2026-05-07 14:12 | 62.95895 | -147.64075 | 12062 ft | 226 kts | 29° |
| 2026-05-07 14:12 | 62.97266 | -147.62367 | 12064 ft | 226 kts | 29° |
| 2026-05-07 14:12 | 62.98636 | -147.60673 | 12067 ft | 226 kts | 28° |
| 2026-05-07 14:13 | 63.00011 | -147.58985 | 12070 ft | 226 kts | 28° |
| 2026-05-07 14:13 | 63.01393 | -147.57301 | 12073 ft | 226 kts | 28° |
| 2026-05-07 14:13 | 63.02756 | -147.55651 | 12076 ft | 226 kts | 28° |
| 2026-05-07 14:13 | 63.04142 | -147.53986 | 12079 ft | 226 kts | 28° |
| 2026-05-07 14:14 | 63.05527 | -147.52334 | 12081 ft | 226 kts | 27° |
| 2026-05-07 14:14 | 63.06916 | -147.50690 | 12084 ft | 226 kts | 27° |
| 2026-05-07 14:14 | 63.08312 | -147.49045 | 12034 ft | 229 kts | 27° |
| 2026-05-07 14:14 | 63.09719 | -147.47382 | 12010 ft | 229 kts | 27° |
| 2026-05-07 14:15 | 63.11122 | -147.45733 | 12006 ft | 228 kts | 27° |
| 2026-05-07 14:15 | 63.12528 | -147.44093 | 12003 ft | 228 kts | 27° |
| 2026-05-07 14:15 | 63.13931 | -147.42467 | 12003 ft | 228 kts | 27° |
| 2026-05-07 14:15 | 63.15335 | -147.40855 | 12005 ft | 227 kts | 26° |
| 2026-05-07 14:16 | 63.16741 | -147.39253 | 12008 ft | 227 kts | 26° |
| 2026-05-07 14:16 | 63.18151 | -147.37661 | 12002 ft | 227 kts | 26° |
| 2026-05-07 14:16 | 63.19561 | -147.36084 | 12003 ft | 227 kts | 26° |
| 2026-05-07 14:16 | 63.20963 | -147.34531 | 11963 ft | 229 kts | 26° |
| 2026-05-07 14:17 | 63.22415 | -147.32935 | 11778 ft | 236 kts | 25° |
| 2026-05-07 14:17 | 63.23900 | -147.31319 | 11581 ft | 240 kts | 25° |
| 2026-05-07 14:17 | 63.25394 | -147.29709 | 11562 ft | 234 kts | 25° |
| 2026-05-07 14:17 | 63.26833 | -147.28171 | 11726 ft | 224 kts | 25° |
| 2026-05-07 14:18 | 63.28225 | -147.26700 | 11876 ft | 219 kts | 24° |
| 2026-05-07 14:18 | 63.29595 | -147.25267 | 11976 ft | 217 kts | 24° |
| 2026-05-07 14:18 | 63.30969 | -147.23846 | 12010 ft | 219 kts | 24° |
| 2026-05-07 14:18 | 63.32362 | -147.22419 | 12020 ft | 221 kts | 24° |
| 2026-05-07 14:19 | 63.33769 | -147.20994 | 12024 ft | 223 kts | 24° |
| 2026-05-07 14:19 | 63.35168 | -147.19592 | 12017 ft | 224 kts | 23° |
| 2026-05-07 14:19 | 63.36596 | -147.18172 | 12006 ft | 226 kts | 23° |
| 2026-05-07 14:19 | 63.38035 | -147.16756 | 12007 ft | 226 kts | 23° |
| 2026-05-07 14:20 | 63.39478 | -147.15353 | 11995 ft | 227 kts | 22° |
| 2026-05-07 14:20 | 63.40927 | -147.13959 | 12000 ft | 227 kts | 22° |
| 2026-05-07 14:20 | 63.42379 | -147.12579 | 12005 ft | 226 kts | 22° |
| 2026-05-07 14:20 | 63.43830 | -147.11216 | 12004 ft | 227 kts | 22° |
| 2026-05-07 14:21 | 63.45289 | -147.09863 | 12005 ft | 227 kts | 21° |
| 2026-05-07 14:21 | 63.46746 | -147.08528 | 12016 ft | 226 kts | 21° |
| 2026-05-07 14:21 | 63.48207 | -147.07208 | 12005 ft | 227 kts | 21° |
| 2026-05-07 14:21 | 63.49674 | -147.05900 | 12005 ft | 227 kts | 20° |
| 2026-05-07 14:22 | 63.51140 | -147.04611 | 12008 ft | 227 kts | 20° |
| 2026-05-07 14:22 | 63.52610 | -147.03337 | 12011 ft | 226 kts | 20° |
| 2026-05-07 14:22 | 63.54084 | -147.02079 | 12014 ft | 226 kts | 20° |
| 2026-05-07 14:22 | 63.55555 | -147.00844 | 12009 ft | 226 kts | 19° |
| 2026-05-07 14:23 | 63.57038 | -146.99614 | 12005 ft | 227 kts | 19° |
| 2026-05-07 14:23 | 63.58500 | -146.98419 | 12002 ft | 227 kts | 19° |
| 2026-05-07 14:23 | 63.59989 | -146.97222 | 12001 ft | 227 kts | 18° |
| 2026-05-07 14:23 | 63.61480 | -146.96045 | 12002 ft | 226 kts | 18° |
| 2026-05-07 14:24 | 63.62971 | -146.94888 | 12001 ft | 226 kts | 18° |
| 2026-05-07 14:24 | 63.64467 | -146.93748 | 12002 ft | 226 kts | 17° |
| 2026-05-07 14:24 | 63.65960 | -146.92631 | 12004 ft | 226 kts | 17° |
| 2026-05-07 14:24 | 63.67460 | -146.91530 | 11997 ft | 227 kts | 17° |
| 2026-05-07 14:25 | 63.68950 | -146.90457 | 11830 ft | 228 kts | 16° |
| 2026-05-07 14:25 | 63.70469 | -146.89386 | 11632 ft | 229 kts | 16° |
| 2026-05-07 14:25 | 63.71987 | -146.88337 | 11401 ft | 227 kts | 15° |
| 2026-05-07 14:25 | 63.73485 | -146.87325 | 11067 ft | 222 kts | 15° |
| 2026-05-07 14:26 | 63.74951 | -146.86356 | 10693 ft | 217 kts | 14° |
| 2026-05-07 14:26 | 63.76391 | -146.85426 | 10318 ft | 214 kts | 14° |
| 2026-05-07 14:26 | 63.77818 | -146.84528 | 9943 ft | 212 kts | 14° |
| 2026-05-07 14:26 | 63.79235 | -146.83659 | 9568 ft | 210 kts | 13° |
| 2026-05-07 14:27 | 63.80642 | -146.82819 | 9192 ft | 208 kts | 13° |
| 2026-05-07 14:27 | 63.82041 | -146.82005 | 8819 ft | 207 kts | 13° |
| 2026-05-07 14:27 | 63.83433 | -146.81218 | 8399 ft | 206 kts | 12° |
| 2026-05-07 14:27 | 63.84830 | -146.80448 | 7949 ft | 206 kts | 11° |
| 2026-05-07 14:28 | 63.86221 | -146.79703 | 7499 ft | 205 kts | 11° |
| 2026-05-07 14:28 | 63.87613 | -146.78981 | 7050 ft | 205 kts | 10° |
| 2026-05-07 14:28 | 63.88988 | -146.78291 | 6605 ft | 205 kts | 10° |
| 2026-05-07 14:28 | 63.90402 | -146.77600 | 6151 ft | 205 kts | 9° |
| 2026-05-07 14:29 | 63.91796 | -146.76950 | 5701 ft | 204 kts | 9° |
| 2026-05-07 14:29 | 63.93181 | -146.76334 | 5257 ft | 207 kts | 8° |
| 2026-05-07 14:29 | 63.94617 | -146.75721 | 4897 ft | 211 kts | 8° |
| 2026-05-07 14:29 | 63.96074 | -146.75121 | 4592 ft | 214 kts | 8° |
| 2026-05-07 14:30 | 63.97537 | -146.74548 | 4353 ft | 212 kts | 8° |
| 2026-05-07 14:30 | 63.98987 | -146.74013 | 4229 ft | 207 kts | 8° |
| 2026-05-07 14:30 | 64.00389 | -146.73516 | 4094 ft | 201 kts | 8° |
| 2026-05-07 14:30 | 64.01757 | -146.73053 | 4027 ft | 196 kts | 7° |
| 2026-05-07 14:31 | 64.03091 | -146.72628 | 4006 ft | 191 kts | 6° |
| 2026-05-07 14:31 | 64.04396 | -146.72243 | 3999 ft | 186 kts | 6° |
| 2026-05-07 14:31 | 64.05659 | -146.71890 | 3998 ft | 185 kts | 5° |
| 2026-05-07 14:31 | 64.06932 | -146.71562 | 4000 ft | 184 kts | 5° |
| 2026-05-07 14:32 | 64.08199 | -146.71263 | 4001 ft | 183 kts | 4° |
| 2026-05-07 14:32 | 64.09468 | -146.70992 | 4002 ft | 185 kts | 4° |
| 2026-05-07 14:32 | 64.10765 | -146.70743 | 4003 ft | 188 kts | 3° |
| 2026-05-07 14:32 | 64.12073 | -146.70520 | 4003 ft | 189 kts | 2° |
| 2026-05-07 14:33 | 64.13393 | -146.70325 | 4002 ft | 190 kts | 2° |
| 2026-05-07 14:33 | 64.14718 | -146.70160 | 4003 ft | 190 kts | 1° |
| 2026-05-07 14:33 | 64.16043 | -146.70067 | 4002 ft | 190 kts | 359° |
| 2026-05-07 14:33 | 64.17364 | -146.70219 | 4001 ft | 190 kts | 353° |
| 2026-05-07 14:34 | 64.18676 | -146.70650 | 4001 ft | 190 kts | 348° |
| 2026-05-07 14:34 | 64.19964 | -146.71297 | 4002 ft | 190 kts | 345° |
| 2026-05-07 14:34 | 64.21236 | -146.72093 | 4001 ft | 189 kts | 342° |
| 2026-05-07 14:34 | 64.22497 | -146.72985 | 4002 ft | 189 kts | 341° |
| 2026-05-07 14:35 | 64.23750 | -146.73936 | 4002 ft | 189 kts | 340° |
| 2026-05-07 14:35 | 64.24979 | -146.74907 | 4003 ft | 189 kts | 340° |
| 2026-05-07 14:35 | 64.26219 | -146.75910 | 4001 ft | 189 kts | 339° |
| 2026-05-07 14:35 | 64.27461 | -146.76925 | 4001 ft | 189 kts | 339° |
| 2026-05-07 14:36 | 64.28713 | -146.77957 | 3897 ft | 194 kts | 339° |
| 2026-05-07 14:36 | 64.30001 | -146.79025 | 3734 ft | 199 kts | 339° |
| 2026-05-07 14:36 | 64.31312 | -146.80114 | 3594 ft | 200 kts | 339° |
| 2026-05-07 14:36 | 64.32618 | -146.81200 | 3526 ft | 198 kts | 339° |
| 2026-05-07 14:37 | 64.33471 | -146.81910 | 3509 ft | 192 kts | 339° |
| 2026-05-07 14:37 | 64.36194 | -146.84178 | 3496 ft | 170 kts | 339° |
| 2026-05-07 14:37 | 64.37325 | -146.85125 | 3500 ft | 175 kts | 339° |
| 2026-05-07 14:38 | 64.38469 | -146.86084 | 3350 ft | 179 kts | 339° |
| 2026-05-07 14:38 | 64.39644 | -146.87069 | 3192 ft | 180 kts | 339° |
| 2026-05-07 14:38 | 64.40823 | -146.88058 | 2992 ft | 181 kts | 339° |
| 2026-05-07 14:38 | 64.41998 | -146.89044 | 2791 ft | 178 kts | 339° |
| 2026-05-07 14:39 | 64.43149 | -146.90009 | 2627 ft | 174 kts | 339° |
| 2026-05-07 14:39 | 64.44270 | -146.90952 | 2527 ft | 167 kts | 339° |
| 2026-05-07 14:39 | 64.45344 | -146.91856 | 2503 ft | 164 kts | 339° |
| 2026-05-07 14:39 | 64.46428 | -146.92768 | 2504 ft | 167 kts | 339° |
| 2026-05-07 14:40 | 64.47528 | -146.93695 | 2503 ft | 168 kts | 339° |
| 2026-05-07 14:40 | 64.48580 | -146.94581 | 2504 ft | 157 kts | 339° |
| 2026-05-07 14:40 | 64.49249 | -146.95145 | 2497 ft | 152 kts | 339° |
| 2026-05-07 14:40 | 64.50179 | -146.95930 | 2479 ft | 131 kts | 339° |
| 2026-05-07 14:41 | 64.51004 | -146.96628 | 2401 ft | 126 kts | 339° |
| 2026-05-07 14:41 | 64.51826 | -146.97325 | 2261 ft | 126 kts | 339° |
| 2026-05-07 14:41 | 64.52655 | -146.98030 | 2110 ft | 126 kts | 340° |
| 2026-05-07 14:41 | 64.53470 | -146.98721 | 2015 ft | 122 kts | 340° |
| 2026-05-07 14:42 | 64.54477 | -146.99573 | 2002 ft | 112 kts | 340° |
| 2026-05-07 14:42 | 64.54971 | -146.99991 | 2015 ft | 111 kts | 340° |
| 2026-05-07 14:42 | 64.55699 | -147.00608 | 2005 ft | 112 kts | 340° |
| 2026-05-07 14:42 | 64.56428 | -147.01225 | 2006 ft | 109 kts | 340° |
| 2026-05-07 14:43 | 64.57124 | -147.01815 | 1996 ft | 105 kts | 340° |
| 2026-05-07 14:43 | 64.57805 | -147.02392 | 1950 ft | 106 kts | 340° |
| 2026-05-07 14:43 | 64.58522 | -147.03001 | 1803 ft | 112 kts | 340° |
| 2026-05-07 14:43 | 64.59268 | -147.03635 | 1643 ft | 115 kts | 340° |
| 2026-05-07 14:44 | 64.60013 | -147.04268 | 1495 ft | 115 kts | 340° |
| 2026-05-07 14:44 | 64.60763 | -147.04906 | 1344 ft | 112 kts | 340° |
| 2026-05-07 14:44 | 64.61477 | -147.05514 | 1174 ft | 106 kts | 340° |
| 2026-05-07 14:44 | 64.62159 | -147.06094 | 988 ft | 103 kts | 340° |
| 2026-05-07 14:45 | 64.62825 | -147.06654 | 835 ft | 100 kts | 340° |
| 2026-05-07 14:45 | 64.63466 | -147.07172 | 760 ft | 95 kts | 341° |
| 2026-05-07 14:45 | 64.64080 | -147.07712 | 667 ft | 93 kts | 339° |
| 2026-05-07 14:45 | 64.64674 | -147.08247 | 582 ft | 90 kts | 339° |
| 2026-05-07 14:46 | 64.65251 | -147.08760 | 559 ft | 88 kts | 339° |
| 2026-05-07 14:46 | 64.65755 | -147.09212 | 558 ft | 65 kts | 339° |
| 2026-05-07 14:46 | 64.66126 | -147.09542 | 557 ft | 49 kts | 339° |
| 2026-05-07 14:46 | 64.66395 | -147.09784 | 557 ft | 33 kts | 339° |
| 2026-05-07 14:47 | 64.66521 | -147.09706 | 557 ft | 23 kts | 69° |
| 2026-05-07 14:47 | 64.66567 | -147.09281 | 557 ft | 14 kts | 130° |
| 2026-05-07 14:47 | 64.66470 | -147.09224 | 557 ft | 15 kts | 160° |
| 2026-05-07 14:47 | 64.66457 | -147.09213 | 557 ft | 0 kts | 160° |